sensor_id;sensor_type;location;lat;lon;timestamp;P1;durP1;ratioP1;P2;durP2;ratioP2
15194;SDS011;7698;42.478;23.756;2024-01-16T00:01:10;17.23;;;12.32;;
15194;SDS011;7698;42.478;23.756;2024-01-16T00:03:37;17.58;;;12.32;;
15194;SDS011;7698;42.478;23.756;2024-01-16T00:06:05;14.95;;;10.57;;
15194;SDS011;7698;42.478;23.756;2024-01-16T00:08:32;15.60;;;11.75;;
15194;SDS011;7698;42.478;23.756;2024-01-16T00:11:01;15.73;;;11.27;;
15194;SDS011;7698;42.478;23.756;2024-01-16T00:13:27;12.98;;;10.65;;
15194;SDS011;7698;42.478;23.756;2024-01-16T00:15:54;16.80;;;11.57;;
15194;SDS011;7698;42.478;23.756;2024-01-16T00:18:21;20.42;;;13.40;;
15194;SDS011;7698;42.478;23.756;2024-01-16T00:20:48;21.63;;;12.90;;
15194;SDS011;7698;42.478;23.756;2024-01-16T00:23:16;19.45;;;13.32;;
15194;SDS011;7698;42.478;23.756;2024-01-16T00:25:43;15.07;;;11.23;;
15194;SDS011;7698;42.478;23.756;2024-01-16T00:28:09;14.45;;;10.13;;
15194;SDS011;7698;42.478;23.756;2024-01-16T00:30:36;11.88;;;8.90;;
15194;SDS011;7698;42.478;23.756;2024-01-16T00:33:02;13.43;;;9.55;;
15194;SDS011;7698;42.478;23.756;2024-01-16T00:35:29;9.32;;;7.75;;
15194;SDS011;7698;42.478;23.756;2024-01-16T00:37:56;9.50;;;7.60;;
15194;SDS011;7698;42.478;23.756;2024-01-16T00:40:24;11.50;;;8.25;;
15194;SDS011;7698;42.478;23.756;2024-01-16T00:42:50;14.65;;;9.98;;
15194;SDS011;7698;42.478;23.756;2024-01-16T00:45:17;14.38;;;10.45;;
15194;SDS011;7698;42.478;23.756;2024-01-16T00:47:43;19.05;;;11.55;;
15194;SDS011;7698;42.478;23.756;2024-01-16T00:50:10;17.73;;;10.90;;
15194;SDS011;7698;42.478;23.756;2024-01-16T00:52:36;12.57;;;9.50;;
15194;SDS011;7698;42.478;23.756;2024-01-16T00:55:03;11.73;;;8.50;;
15194;SDS011;7698;42.478;23.756;2024-01-16T00:57:31;13.68;;;9.45;;
15194;SDS011;7698;42.478;23.756;2024-01-16T00:59:58;15.57;;;10.68;;
15194;SDS011;7698;42.478;23.756;2024-01-16T01:02:24;15.73;;;11.05;;
15194;SDS011;7698;42.478;23.756;2024-01-16T01:04:51;15.00;;;10.15;;
15194;SDS011;7698;42.478;23.756;2024-01-16T01:07:17;25.13;;;14.75;;
15194;SDS011;7698;42.478;23.756;2024-01-16T01:09:44;19.20;;;11.68;;
15194;SDS011;7698;42.478;23.756;2024-01-16T01:12:10;25.33;;;15.60;;
15194;SDS011;7698;42.478;23.756;2024-01-16T01:14:38;16.95;;;11.43;;
15194;SDS011;7698;42.478;23.756;2024-01-16T01:17:05;14.52;;;9.95;;
15194;SDS011;7698;42.478;23.756;2024-01-16T01:19:31;17.38;;;9.93;;
15194;SDS011;7698;42.478;23.756;2024-01-16T01:21:58;16.63;;;10.45;;
15194;SDS011;7698;42.478;23.756;2024-01-16T01:24:25;14.40;;;9.70;;
15194;SDS011;7698;42.478;23.756;2024-01-16T01:26:51;9.65;;;7.88;;
15194;SDS011;7698;42.478;23.756;2024-01-16T01:29:18;11.00;;;8.55;;
15194;SDS011;7698;42.478;23.756;2024-01-16T01:31:46;11.38;;;7.55;;
15194;SDS011;7698;42.478;23.756;2024-01-16T01:34:12;9.05;;;6.30;;
15194;SDS011;7698;42.478;23.756;2024-01-16T01:36:39;10.93;;;7.78;;
15194;SDS011;7698;42.478;23.756;2024-01-16T01:39:05;9.93;;;7.10;;
15194;SDS011;7698;42.478;23.756;2024-01-16T01:41:32;8.80;;;6.40;;
15194;SDS011;7698;42.478;23.756;2024-01-16T01:43:59;10.15;;;6.95;;
15194;SDS011;7698;42.478;23.756;2024-01-16T01:46:25;7.85;;;6.25;;
15194;SDS011;7698;42.478;23.756;2024-01-16T01:48:54;9.93;;;6.22;;
15194;SDS011;7698;42.478;23.756;2024-01-16T01:51:21;9.52;;;6.82;;
15194;SDS011;7698;42.478;23.756;2024-01-16T01:53:48;8.75;;;7.00;;
15194;SDS011;7698;42.478;23.756;2024-01-16T01:56:15;12.00;;;7.70;;
15194;SDS011;7698;42.478;23.756;2024-01-16T01:58:43;12.02;;;7.85;;
15194;SDS011;7698;42.478;23.756;2024-01-16T02:01:09;11.40;;;8.75;;
15194;SDS011;7698;42.478;23.756;2024-01-16T02:03:39;10.13;;;7.53;;
15194;SDS011;7698;42.478;23.756;2024-01-16T02:06:08;11.30;;;8.43;;
15194;SDS011;7698;42.478;23.756;2024-01-16T02:08:34;9.18;;;7.43;;
15194;SDS011;7698;42.478;23.756;2024-01-16T02:11:01;10.15;;;7.45;;
15194;SDS011;7698;42.478;23.756;2024-01-16T02:13:28;11.93;;;8.77;;
15194;SDS011;7698;42.478;23.756;2024-01-16T02:15:55;8.85;;;7.85;;
15194;SDS011;7698;42.478;23.756;2024-01-16T02:18:21;9.43;;;7.78;;
15194;SDS011;7698;42.478;23.756;2024-01-16T02:20:48;10.38;;;7.15;;
15194;SDS011;7698;42.478;23.756;2024-01-16T02:23:16;11.57;;;9.02;;
15194;SDS011;7698;42.478;23.756;2024-01-16T02:25:46;9.50;;;7.47;;
15194;SDS011;7698;42.478;23.756;2024-01-16T02:28:12;12.05;;;8.75;;
15194;SDS011;7698;42.478;23.756;2024-01-16T02:30:39;9.38;;;7.60;;
15194;SDS011;7698;42.478;23.756;2024-01-16T02:33:07;9.48;;;6.78;;
15194;SDS011;7698;42.478;23.756;2024-01-16T02:35:34;6.68;;;5.40;;
15194;SDS011;7698;42.478;23.756;2024-01-16T02:38:01;8.85;;;6.25;;
15194;SDS011;7698;42.478;23.756;2024-01-16T02:40:27;7.82;;;6.32;;
15194;SDS011;7698;42.478;23.756;2024-01-16T02:42:55;7.68;;;6.15;;
15194;SDS011;7698;42.478;23.756;2024-01-16T02:45:22;9.25;;;7.53;;
15194;SDS011;7698;42.478;23.756;2024-01-16T02:47:49;11.57;;;10.05;;
15194;SDS011;7698;42.478;23.756;2024-01-16T02:50:15;11.25;;;10.20;;
15194;SDS011;7698;42.478;23.756;2024-01-16T02:52:42;12.35;;;11.25;;
15194;SDS011;7698;42.478;23.756;2024-01-16T02:55:08;10.65;;;9.68;;
15194;SDS011;7698;42.478;23.756;2024-01-16T02:57:35;10.27;;;9.05;;
15194;SDS011;7698;42.478;23.756;2024-01-16T03:00:03;10.60;;;9.07;;
15194;SDS011;7698;42.478;23.756;2024-01-16T03:02:31;11.40;;;9.55;;
15194;SDS011;7698;42.478;23.756;2024-01-16T03:04:57;10.40;;;8.68;;
15194;SDS011;7698;42.478;23.756;2024-01-16T03:07:24;10.00;;;8.23;;
15194;SDS011;7698;42.478;23.756;2024-01-16T03:09:50;7.95;;;6.70;;
15194;SDS011;7698;42.478;23.756;2024-01-16T03:12:17;9.88;;;8.52;;
15194;SDS011;7698;42.478;23.756;2024-01-16T03:14:43;8.65;;;7.35;;
15194;SDS011;7698;42.478;23.756;2024-01-16T03:17:11;9.95;;;7.75;;
15194;SDS011;7698;42.478;23.756;2024-01-16T03:19:38;10.90;;;8.23;;
15194;SDS011;7698;42.478;23.756;2024-01-16T03:22:04;10.40;;;8.30;;
15194;SDS011;7698;42.478;23.756;2024-01-16T03:24:31;9.77;;;8.68;;
15194;SDS011;7698;42.478;23.756;2024-01-16T03:26:58;11.88;;;9.20;;
15194;SDS011;7698;42.478;23.756;2024-01-16T03:29:24;7.43;;;6.38;;
15194;SDS011;7698;42.478;23.756;2024-01-16T03:31:51;12.65;;;9.07;;
15194;SDS011;7698;42.478;23.756;2024-01-16T03:34:19;11.15;;;8.77;;
15194;SDS011;7698;42.478;23.756;2024-01-16T03:36:46;8.50;;;7.05;;
15194;SDS011;7698;42.478;23.756;2024-01-16T03:39:12;11.50;;;8.90;;
15194;SDS011;7698;42.478;23.756;2024-01-16T03:41:39;10.20;;;7.95;;
15194;SDS011;7698;42.478;23.756;2024-01-16T03:44:05;10.70;;;8.80;;
15194;SDS011;7698;42.478;23.756;2024-01-16T03:46:32;9.98;;;8.85;;
15194;SDS011;7698;42.478;23.756;2024-01-16T03:48:58;9.30;;;7.65;;
15194;SDS011;7698;42.478;23.756;2024-01-16T03:51:26;7.00;;;4.03;;
15194;SDS011;7698;42.478;23.756;2024-01-16T03:53:53;5.57;;;4.07;;
15194;SDS011;7698;42.478;23.756;2024-01-16T03:56:20;6.68;;;4.50;;
15194;SDS011;7698;42.478;23.756;2024-01-16T03:58:46;5.82;;;4.35;;
15194;SDS011;7698;42.478;23.756;2024-01-16T04:01:13;8.50;;;6.00;;
15194;SDS011;7698;42.478;23.756;2024-01-16T04:03:39;6.07;;;5.40;;
15194;SDS011;7698;42.478;23.756;2024-01-16T04:06:13;8.43;;;5.30;;
15194;SDS011;7698;42.478;23.756;2024-01-16T04:08:41;7.47;;;5.18;;
15194;SDS011;7698;42.478;23.756;2024-01-16T04:11:11;5.18;;;4.47;;
15194;SDS011;7698;42.478;23.756;2024-01-16T04:13:37;5.57;;;4.43;;
15194;SDS011;7698;42.478;23.756;2024-01-16T04:16:04;4.68;;;3.83;;
15194;SDS011;7698;42.478;23.756;2024-01-16T04:18:34;3.92;;;3.53;;
15194;SDS011;7698;42.478;23.756;2024-01-16T04:21:01;3.42;;;2.65;;
15194;SDS011;7698;42.478;23.756;2024-01-16T04:23:27;3.58;;;3.28;;
15194;SDS011;7698;42.478;23.756;2024-01-16T04:25:55;3.97;;;3.33;;
15194;SDS011;7698;42.478;23.756;2024-01-16T04:28:22;3.58;;;2.75;;
15194;SDS011;7698;42.478;23.756;2024-01-16T04:30:49;2.92;;;2.72;;
15194;SDS011;7698;42.478;23.756;2024-01-16T04:33:15;2.17;;;1.98;;
15194;SDS011;7698;42.478;23.756;2024-01-16T04:35:42;2.30;;;2.10;;
15194;SDS011;7698;42.478;23.756;2024-01-16T04:38:09;2.28;;;2.08;;
15194;SDS011;7698;42.478;23.756;2024-01-16T04:40:36;1.90;;;1.80;;
15194;SDS011;7698;42.478;23.756;2024-01-16T04:43:03;2.45;;;1.80;;
15194;SDS011;7698;42.478;23.756;2024-01-16T04:45:30;1.75;;;1.50;;
15194;SDS011;7698;42.478;23.756;2024-01-16T04:47:57;1.83;;;1.67;;
15194;SDS011;7698;42.478;23.756;2024-01-16T04:50:23;1.67;;;1.58;;
15194;SDS011;7698;42.478;23.756;2024-01-16T04:52:56;2.08;;;1.90;;
15194;SDS011;7698;42.478;23.756;2024-01-16T04:55:23;1.50;;;1.40;;
15194;SDS011;7698;42.478;23.756;2024-01-16T04:57:50;2.72;;;2.00;;
15194;SDS011;7698;42.478;23.756;2024-01-16T05:00:18;1.20;;;1.10;;
15194;SDS011;7698;42.478;23.756;2024-01-16T05:02:45;1.42;;;1.33;;
15194;SDS011;7698;42.478;23.756;2024-01-16T05:05:12;1.65;;;1.55;;
15194;SDS011;7698;42.478;23.756;2024-01-16T05:07:39;1.70;;;1.55;;
15194;SDS011;7698;42.478;23.756;2024-01-16T05:10:06;1.58;;;1.27;;
15194;SDS011;7698;42.478;23.756;2024-01-16T05:12:33;1.20;;;1.10;;
15194;SDS011;7698;42.478;23.756;2024-01-16T05:15:00;1.95;;;1.13;;
15194;SDS011;7698;42.478;23.756;2024-01-16T05:17:28;0.80;;;0.80;;
15194;SDS011;7698;42.478;23.756;2024-01-16T05:19:54;1.10;;;1.10;;
15194;SDS011;7698;42.478;23.756;2024-01-16T05:22:21;1.20;;;1.08;;
15194;SDS011;7698;42.478;23.756;2024-01-16T05:24:48;1.35;;;1.25;;
15194;SDS011;7698;42.478;23.756;2024-01-16T05:27:15;0.98;;;0.95;;
15194;SDS011;7698;42.478;23.756;2024-01-16T05:29:41;1.42;;;1.23;;
15194;SDS011;7698;42.478;23.756;2024-01-16T05:32:08;1.30;;;1.20;;
15194;SDS011;7698;42.478;23.756;2024-01-16T05:34:35;1.20;;;1.10;;
15194;SDS011;7698;42.478;23.756;2024-01-16T05:37:01;0.88;;;0.73;;
15194;SDS011;7698;42.478;23.756;2024-01-16T05:39:28;1.05;;;1.00;;
15194;SDS011;7698;42.478;23.756;2024-01-16T05:41:54;1.30;;;1.20;;
15194;SDS011;7698;42.478;23.756;2024-01-16T05:44:21;1.25;;;1.15;;
15194;SDS011;7698;42.478;23.756;2024-01-16T05:46:48;1.58;;;1.33;;
15194;SDS011;7698;42.478;23.756;2024-01-16T05:49:14;3.80;;;2.33;;
15194;SDS011;7698;42.478;23.756;2024-01-16T05:51:42;3.25;;;2.72;;
15194;SDS011;7698;42.478;23.756;2024-01-16T05:54:09;1.95;;;1.75;;
15194;SDS011;7698;42.478;23.756;2024-01-16T05:56:35;1.60;;;1.50;;
15194;SDS011;7698;42.478;23.756;2024-01-16T05:59:02;1.88;;;1.60;;
15194;SDS011;7698;42.478;23.756;2024-01-16T06:01:30;3.22;;;2.50;;
15194;SDS011;7698;42.478;23.756;2024-01-16T06:03:56;1.80;;;1.55;;
15194;SDS011;7698;42.478;23.756;2024-01-16T06:06:23;1.52;;;1.40;;
15194;SDS011;7698;42.478;23.756;2024-01-16T06:08:51;1.20;;;1.10;;
15194;SDS011;7698;42.478;23.756;2024-01-16T06:11:18;1.23;;;1.00;;
15194;SDS011;7698;42.478;23.756;2024-01-16T06:13:45;0.98;;;0.80;;
15194;SDS011;7698;42.478;23.756;2024-01-16T06:16:11;1.30;;;1.20;;
15194;SDS011;7698;42.478;23.756;2024-01-16T06:18:38;1.02;;;0.93;;
15194;SDS011;7698;42.478;23.756;2024-01-16T06:21:05;0.80;;;0.80;;
15194;SDS011;7698;42.478;23.756;2024-01-16T06:23:31;0.80;;;0.80;;
15194;SDS011;7698;42.478;23.756;2024-01-16T06:26:00;1.15;;;1.13;;
15194;SDS011;7698;42.478;23.756;2024-01-16T06:28:27;1.63;;;1.50;;
15194;SDS011;7698;42.478;23.756;2024-01-16T06:30:53;1.00;;;1.00;;
15194;SDS011;7698;42.478;23.756;2024-01-16T06:33:20;1.38;;;1.30;;
15194;SDS011;7698;42.478;23.756;2024-01-16T06:35:46;1.80;;;1.55;;
15194;SDS011;7698;42.478;23.756;2024-01-16T06:38:13;2.55;;;2.22;;
15194;SDS011;7698;42.478;23.756;2024-01-16T06:40:40;2.78;;;2.33;;
15194;SDS011;7698;42.478;23.756;2024-01-16T06:43:07;2.03;;;1.70;;
15194;SDS011;7698;42.478;23.756;2024-01-16T06:45:35;2.40;;;2.20;;
15194;SDS011;7698;42.478;23.756;2024-01-16T06:48:02;2.05;;;1.95;;
15194;SDS011;7698;42.478;23.756;2024-01-16T06:50:29;1.73;;;1.63;;
15194;SDS011;7698;42.478;23.756;2024-01-16T06:52:55;1.90;;;1.67;;
15194;SDS011;7698;42.478;23.756;2024-01-16T06:55:22;1.75;;;1.65;;
15194;SDS011;7698;42.478;23.756;2024-01-16T06:57:48;1.42;;;1.27;;
15194;SDS011;7698;42.478;23.756;2024-01-16T07:00:17;1.42;;;1.33;;
15194;SDS011;7698;42.478;23.756;2024-01-16T07:02:43;1.38;;;1.27;;
15194;SDS011;7698;42.478;23.756;2024-01-16T07:05:11;0.93;;;0.93;;
15194;SDS011;7698;42.478;23.756;2024-01-16T07:07:37;1.17;;;1.08;;
15194;SDS011;7698;42.478;23.756;2024-01-16T07:10:04;1.13;;;1.02;;
15194;SDS011;7698;42.478;23.756;2024-01-16T07:12:33;1.33;;;1.23;;
15194;SDS011;7698;42.478;23.756;2024-01-16T07:15:00;0.80;;;0.80;;
15194;SDS011;7698;42.478;23.756;2024-01-16T07:17:28;1.10;;;1.00;;
15194;SDS011;7698;42.478;23.756;2024-01-16T07:19:54;1.58;;;1.48;;
15194;SDS011;7698;42.478;23.756;2024-01-16T07:22:21;1.80;;;1.13;;
15194;SDS011;7698;42.478;23.756;2024-01-16T07:24:47;1.35;;;1.25;;
15194;SDS011;7698;42.478;23.756;2024-01-16T07:27:14;1.40;;;1.30;;
15194;SDS011;7698;42.478;23.756;2024-01-16T07:29:41;1.40;;;1.30;;
15194;SDS011;7698;42.478;23.756;2024-01-16T07:32:07;0.77;;;0.77;;
15194;SDS011;7698;42.478;23.756;2024-01-16T07:34:37;1.35;;;1.05;;
15194;SDS011;7698;42.478;23.756;2024-01-16T07:37:04;3.30;;;1.30;;
15194;SDS011;7698;42.478;23.756;2024-01-16T07:39:30;1.00;;;0.90;;
15194;SDS011;7698;42.478;23.756;2024-01-16T07:41:57;0.70;;;0.70;;
15194;SDS011;7698;42.478;23.756;2024-01-16T07:44:23;1.20;;;1.10;;
15194;SDS011;7698;42.478;23.756;2024-01-16T07:46:50;0.98;;;0.88;;
15194;SDS011;7698;42.478;23.756;2024-01-16T07:49:17;0.98;;;0.85;;
15194;SDS011;7698;42.478;23.756;2024-01-16T07:51:45;1.50;;;1.23;;
15194;SDS011;7698;42.478;23.756;2024-01-16T07:54:11;1.20;;;1.10;;
15194;SDS011;7698;42.478;23.756;2024-01-16T07:56:38;1.90;;;1.63;;
15194;SDS011;7698;42.478;23.756;2024-01-16T07:59:05;1.42;;;1.17;;
15194;SDS011;7698;42.478;23.756;2024-01-16T08:01:32;1.48;;;1.38;;
15194;SDS011;7698;42.478;23.756;2024-01-16T08:03:59;1.10;;;0.93;;
15194;SDS011;7698;42.478;23.756;2024-01-16T08:06:25;1.30;;;1.20;;
15194;SDS011;7698;42.478;23.756;2024-01-16T08:08:54;0.77;;;0.77;;
15194;SDS011;7698;42.478;23.756;2024-01-16T08:11:20;0.80;;;0.80;;
15194;SDS011;7698;42.478;23.756;2024-01-16T08:13:47;1.20;;;1.02;;
15194;SDS011;7698;42.478;23.756;2024-01-16T08:16:13;1.48;;;1.13;;
15194;SDS011;7698;42.478;23.756;2024-01-16T08:18:40;1.40;;;1.20;;
15194;SDS011;7698;42.478;23.756;2024-01-16T08:21:07;1.58;;;1.48;;
15194;SDS011;7698;42.478;23.756;2024-01-16T08:23:33;1.55;;;1.45;;
15194;SDS011;7698;42.478;23.756;2024-01-16T08:26:01;1.23;;;1.13;;
15194;SDS011;7698;42.478;23.756;2024-01-16T08:28:28;1.40;;;1.10;;
15194;SDS011;7698;42.478;23.756;2024-01-16T08:30:55;0.93;;;0.80;;
15194;SDS011;7698;42.478;23.756;2024-01-16T08:33:21;0.88;;;0.88;;
15194;SDS011;7698;42.478;23.756;2024-01-16T08:35:48;1.50;;;1.13;;
15194;SDS011;7698;42.478;23.756;2024-01-16T08:38:15;1.10;;;1.00;;
15194;SDS011;7698;42.478;23.756;2024-01-16T08:40:42;1.08;;;0.93;;
15194;SDS011;7698;42.478;23.756;2024-01-16T08:43:10;1.00;;;0.88;;
15194;SDS011;7698;42.478;23.756;2024-01-16T08:45:36;1.60;;;1.50;;
15194;SDS011;7698;42.478;23.756;2024-01-16T08:48:03;1.58;;;1.38;;
15194;SDS011;7698;42.478;23.756;2024-01-16T08:50:30;1.23;;;1.10;;
15194;SDS011;7698;42.478;23.756;2024-01-16T08:52:56;0.88;;;0.88;;
15194;SDS011;7698;42.478;23.756;2024-01-16T08:55:23;1.13;;;1.08;;
15194;SDS011;7698;42.478;23.756;2024-01-16T08:57:49;0.98;;;0.90;;
15194;SDS011;7698;42.478;23.756;2024-01-16T09:00:18;2.13;;;1.70;;
15194;SDS011;7698;42.478;23.756;2024-01-16T09:02:44;1.13;;;1.02;;
15194;SDS011;7698;42.478;23.756;2024-01-16T09:05:11;1.30;;;1.20;;
15194;SDS011;7698;42.478;23.756;2024-01-16T09:07:38;1.40;;;1.00;;
15194;SDS011;7698;42.478;23.756;2024-01-16T09:10:05;1.23;;;0.88;;
15194;SDS011;7698;42.478;23.756;2024-01-16T09:12:32;1.05;;;0.95;;
15194;SDS011;7698;42.478;23.756;2024-01-16T09:14:58;1.17;;;1.08;;
15194;SDS011;7698;42.478;23.756;2024-01-16T09:17:26;1.05;;;0.93;;
15194;SDS011;7698;42.478;23.756;2024-01-16T09:19:53;1.00;;;0.90;;
15194;SDS011;7698;42.478;23.756;2024-01-16T09:22:20;0.70;;;0.70;;
15194;SDS011;7698;42.478;23.756;2024-01-16T09:24:46;0.70;;;0.70;;
15194;SDS011;7698;42.478;23.756;2024-01-16T09:27:13;0.98;;;0.70;;
15194;SDS011;7698;42.478;23.756;2024-01-16T09:29:41;1.10;;;1.00;;
15194;SDS011;7698;42.478;23.756;2024-01-16T09:32:08;1.45;;;1.30;;
15194;SDS011;7698;42.478;23.756;2024-01-16T09:34:36;1.52;;;1.23;;
15194;SDS011;7698;42.478;23.756;2024-01-16T09:37:03;3.30;;;3.00;;
15194;SDS011;7698;42.478;23.756;2024-01-16T09:39:29;1.70;;;1.58;;
15194;SDS011;7698;42.478;23.756;2024-01-16T09:41:57;7.15;;;5.10;;
15194;SDS011;7698;42.478;23.756;2024-01-16T09:44:26;1.45;;;1.27;;
15194;SDS011;7698;42.478;23.756;2024-01-16T09:46:52;1.55;;;1.17;;
15194;SDS011;7698;42.478;23.756;2024-01-16T09:49:19;1.90;;;1.80;;
15194;SDS011;7698;42.478;23.756;2024-01-16T09:51:47;1.20;;;1.10;;
15194;SDS011;7698;42.478;23.756;2024-01-16T09:54:13;1.10;;;1.00;;
15194;SDS011;7698;42.478;23.756;2024-01-16T09:56:41;1.10;;;1.00;;
15194;SDS011;7698;42.478;23.756;2024-01-16T09:59:08;1.40;;;1.10;;
15194;SDS011;7698;42.478;23.756;2024-01-16T10:01:35;2.35;;;1.88;;
15194;SDS011;7698;42.478;23.756;2024-01-16T10:04:02;1.52;;;1.30;;
15194;SDS011;7698;42.478;23.756;2024-01-16T10:06:28;1.52;;;1.23;;
15194;SDS011;7698;42.478;23.756;2024-01-16T10:08:57;1.45;;;1.35;;
15194;SDS011;7698;42.478;23.756;2024-01-16T10:11:24;1.52;;;1.42;;
15194;SDS011;7698;42.478;23.756;2024-01-16T10:13:50;1.55;;;1.35;;
15194;SDS011;7698;42.478;23.756;2024-01-16T10:16:17;8.95;;;5.55;;
15194;SDS011;7698;42.478;23.756;2024-01-16T10:18:45;4.30;;;3.40;;
15194;SDS011;7698;42.478;23.756;2024-01-16T10:21:19;2.75;;;2.00;;
15194;SDS011;7698;42.478;23.756;2024-01-16T10:23:46;1.58;;;1.10;;
15194;SDS011;7698;42.478;23.756;2024-01-16T10:26:14;1.10;;;1.00;;
15194;SDS011;7698;42.478;23.756;2024-01-16T10:28:41;1.17;;;1.10;;
15194;SDS011;7698;42.478;23.756;2024-01-16T10:31:08;1.33;;;1.23;;
15194;SDS011;7698;42.478;23.756;2024-01-16T10:33:35;1.25;;;1.15;;
15194;SDS011;7698;42.478;23.756;2024-01-16T10:36:07;1.27;;;1.02;;
15194;SDS011;7698;42.478;23.756;2024-01-16T10:38:34;1.05;;;0.95;;
15194;SDS011;7698;42.478;23.756;2024-01-16T10:41:08;1.67;;;1.50;;
15194;SDS011;7698;42.478;23.756;2024-01-16T10:43:36;1.27;;;1.02;;
15194;SDS011;7698;42.478;23.756;2024-01-16T10:46:09;1.20;;;1.10;;
15194;SDS011;7698;42.478;23.756;2024-01-16T10:48:37;1.20;;;1.10;;
15194;SDS011;7698;42.478;23.756;2024-01-16T10:51:04;1.15;;;1.05;;
15194;SDS011;7698;42.478;23.756;2024-01-16T10:53:32;0.90;;;0.88;;
15194;SDS011;7698;42.478;23.756;2024-01-16T10:55:59;1.02;;;0.93;;
15194;SDS011;7698;42.478;23.756;2024-01-16T10:58:26;0.95;;;0.90;;
15194;SDS011;7698;42.478;23.756;2024-01-16T11:00:56;2.67;;;1.70;;
15194;SDS011;7698;42.478;23.756;2024-01-16T11:03:24;0.93;;;0.93;;
15194;SDS011;7698;42.478;23.756;2024-01-16T11:05:51;0.70;;;0.70;;
15194;SDS011;7698;42.478;23.756;2024-01-16T11:08:19;0.52;;;0.52;;
15194;SDS011;7698;42.478;23.756;2024-01-16T11:10:46;2.00;;;1.33;;
15194;SDS011;7698;42.478;23.756;2024-01-16T11:13:14;5.90;;;3.65;;
15194;SDS011;7698;42.478;23.756;2024-01-16T11:15:42;1.88;;;1.40;;
15194;SDS011;7698;42.478;23.756;2024-01-16T11:18:10;5.97;;;3.70;;
15194;SDS011;7698;42.478;23.756;2024-01-16T11:20:39;11.50;;;7.55;;
15194;SDS011;7698;42.478;23.756;2024-01-16T11:23:08;16.50;;;9.75;;
15194;SDS011;7698;42.478;23.756;2024-01-16T11:25:34;37.08;;;22.42;;
15194;SDS011;7698;42.478;23.756;2024-01-16T11:28:10;22.35;;;11.77;;
15194;SDS011;7698;42.478;23.756;2024-01-16T11:30:38;21.48;;;11.13;;
15194;SDS011;7698;42.478;23.756;2024-01-16T11:33:05;10.20;;;5.65;;
15194;SDS011;7698;42.478;23.756;2024-01-16T11:35:34;8.10;;;4.93;;
15194;SDS011;7698;42.478;23.756;2024-01-16T11:38:05;11.38;;;6.10;;
15194;SDS011;7698;42.478;23.756;2024-01-16T11:40:33;8.57;;;3.55;;
15194;SDS011;7698;42.478;23.756;2024-01-16T11:43:33;5.57;;;3.53;;
15194;SDS011;7698;42.478;23.756;2024-01-16T11:45:50;2.97;;;2.00;;
15194;SDS011;7698;42.478;23.756;2024-01-16T11:48:16;4.78;;;2.63;;
15194;SDS011;7698;42.478;23.756;2024-01-16T11:50:44;7.90;;;4.00;;
15194;SDS011;7698;42.478;23.756;2024-01-16T11:53:11;6.55;;;3.15;;
15194;SDS011;7698;42.478;23.756;2024-01-16T11:55:58;4.20;;;2.63;;
15194;SDS011;7698;42.478;23.756;2024-01-16T11:58:34;5.30;;;3.35;;
15194;SDS011;7698;42.478;23.756;2024-01-16T12:01:03;4.70;;;2.95;;
15194;SDS011;7698;42.478;23.756;2024-01-16T12:03:31;4.80;;;2.95;;
15194;SDS011;7698;42.478;23.756;2024-01-16T12:05:59;4.35;;;2.85;;
15194;SDS011;7698;42.478;23.756;2024-01-16T12:08:27;11.40;;;7.38;;
15194;SDS011;7698;42.478;23.756;2024-01-16T12:10:53;13.90;;;8.25;;
15194;SDS011;7698;42.478;23.756;2024-01-16T12:13:20;2.22;;;1.98;;
15194;SDS011;7698;42.478;23.756;2024-01-16T12:15:46;9.27;;;6.20;;
15194;SDS011;7698;42.478;23.756;2024-01-16T12:18:17;8.05;;;5.85;;
15194;SDS011;7698;42.478;23.756;2024-01-16T12:20:44;2.42;;;2.00;;
15194;SDS011;7698;42.478;23.756;2024-01-16T12:23:13;1.70;;;1.60;;
15194;SDS011;7698;42.478;23.756;2024-01-16T12:25:39;17.45;;;7.25;;
15194;SDS011;7698;42.478;23.756;2024-01-16T12:28:07;13.23;;;5.68;;
15194;SDS011;7698;42.478;23.756;2024-01-16T12:30:36;8.73;;;3.83;;
15194;SDS011;7698;42.478;23.756;2024-01-16T12:33:03;3.67;;;1.88;;
15194;SDS011;7698;42.478;23.756;2024-01-16T12:35:32;2.30;;;1.67;;
15194;SDS011;7698;42.478;23.756;2024-01-16T12:37:59;3.45;;;1.77;;
15194;SDS011;7698;42.478;23.756;2024-01-16T12:40:28;8.55;;;5.55;;
15194;SDS011;7698;42.478;23.756;2024-01-16T12:42:54;9.00;;;5.60;;
15194;SDS011;7698;42.478;23.756;2024-01-16T12:45:21;20.27;;;12.77;;
15194;SDS011;7698;42.478;23.756;2024-01-16T12:47:51;11.60;;;7.43;;
15194;SDS011;7698;42.478;23.756;2024-01-16T12:50:21;9.82;;;5.70;;
15194;SDS011;7698;42.478;23.756;2024-01-16T12:52:48;9.13;;;4.50;;
15194;SDS011;7698;42.478;23.756;2024-01-16T12:55:15;9.50;;;4.40;;
15194;SDS011;7698;42.478;23.756;2024-01-16T12:57:44;3.88;;;2.40;;
15194;SDS011;7698;42.478;23.756;2024-01-16T13:00:21;1.40;;;1.30;;
15194;SDS011;7698;42.478;23.756;2024-01-16T13:02:49;2.47;;;2.10;;
15194;SDS011;7698;42.478;23.756;2024-01-16T13:05:16;1.92;;;1.75;;
15194;SDS011;7698;42.478;23.756;2024-01-16T13:07:43;2.85;;;1.77;;
15194;SDS011;7698;42.478;23.756;2024-01-16T13:10:09;1.33;;;1.23;;
15194;SDS011;7698;42.478;23.756;2024-01-16T13:12:37;1.85;;;1.63;;
15194;SDS011;7698;42.478;23.756;2024-01-16T13:15:06;4.20;;;3.45;;
15194;SDS011;7698;42.478;23.756;2024-01-16T13:17:33;6.53;;;4.20;;
15194;SDS011;7698;42.478;23.756;2024-01-16T13:20:00;7.50;;;5.03;;
15194;SDS011;7698;42.478;23.756;2024-01-16T13:22:28;7.20;;;5.10;;
15194;SDS011;7698;42.478;23.756;2024-01-16T13:24:54;6.13;;;4.45;;
15194;SDS011;7698;42.478;23.756;2024-01-16T13:27:22;4.50;;;3.75;;
15194;SDS011;7698;42.478;23.756;2024-01-16T13:29:50;3.28;;;2.97;;
15194;SDS011;7698;42.478;23.756;2024-01-16T13:32:18;17.73;;;8.20;;
15194;SDS011;7698;42.478;23.756;2024-01-16T13:34:45;16.80;;;6.40;;
15194;SDS011;7698;42.478;23.756;2024-01-16T13:37:15;7.75;;;3.65;;
15194;SDS011;7698;42.478;23.756;2024-01-16T13:39:43;3.42;;;2.92;;
15194;SDS011;7698;42.478;23.756;2024-01-16T13:42:10;3.30;;;2.92;;
15194;SDS011;7698;42.478;23.756;2024-01-16T13:44:36;3.53;;;2.97;;
15194;SDS011;7698;42.478;23.756;2024-01-16T13:47:04;4.95;;;3.25;;
15194;SDS011;7698;42.478;23.756;2024-01-16T13:49:32;4.05;;;3.60;;
15194;SDS011;7698;42.478;23.756;2024-01-16T13:51:59;3.85;;;3.40;;
15194;SDS011;7698;42.478;23.756;2024-01-16T13:54:26;3.47;;;2.70;;
15194;SDS011;7698;42.478;23.756;2024-01-16T13:56:52;3.88;;;3.08;;
15194;SDS011;7698;42.478;23.756;2024-01-16T13:59:19;3.35;;;3.05;;
15194;SDS011;7698;42.478;23.756;2024-01-16T14:01:46;3.15;;;2.80;;
15194;SDS011;7698;42.478;23.756;2024-01-16T14:04:12;3.42;;;3.13;;
15194;SDS011;7698;42.478;23.756;2024-01-16T14:06:40;3.33;;;3.03;;
15194;SDS011;7698;42.478;23.756;2024-01-16T14:09:07;3.65;;;3.20;;
15194;SDS011;7698;42.478;23.756;2024-01-16T14:11:34;3.95;;;3.55;;
15194;SDS011;7698;42.478;23.756;2024-01-16T14:14:02;4.30;;;3.33;;
15194;SDS011;7698;42.478;23.756;2024-01-16T14:16:30;5.43;;;3.38;;
15194;SDS011;7698;42.478;23.756;2024-01-16T14:18:57;4.15;;;3.22;;
15194;SDS011;7698;42.478;23.756;2024-01-16T14:21:23;3.92;;;3.05;;
15194;SDS011;7698;42.478;23.756;2024-01-16T14:23:51;3.10;;;2.75;;
15194;SDS011;7698;42.478;23.756;2024-01-16T14:26:18;3.28;;;2.72;;
15194;SDS011;7698;42.478;23.756;2024-01-16T14:28:44;4.07;;;2.80;;
15194;SDS011;7698;42.478;23.756;2024-01-16T14:31:11;3.60;;;3.10;;
15194;SDS011;7698;42.478;23.756;2024-01-16T14:33:38;3.80;;;3.45;;
15194;SDS011;7698;42.478;23.756;2024-01-16T14:36:04;3.35;;;2.83;;
15194;SDS011;7698;42.478;23.756;2024-01-16T14:38:31;4.88;;;2.92;;
15194;SDS011;7698;42.478;23.756;2024-01-16T14:40:59;3.90;;;3.47;;
15194;SDS011;7698;42.478;23.756;2024-01-16T14:43:28;3.92;;;3.50;;